Tikaboo Peak, Nevada Weather observations

Data are for 10 minute period ending at time listed.
 Day   Time   Solar   Ave.   Ave.  Ave.  Vector  Max.   Baro.   Total    
  of    of     Rad.   Air    Rel.  Wind   Wind   Wind  Press.  Precip.   
Year   Day            Temp.  Hum.  Speed  Dir.   Gust                    
2026   (PST)  Kw/m2    F      %     mph   deg.    mph    mb.     in.     
-------------------------------------------------------------------------
 125    2:20   0.00   35.6    61    5.1   171     8.8   755.5    0.00 
 125    2:30   0.00   35.4    66    3.4   104     4.6   755.5    0.00 
 125    2:40   0.00   35.1    68    6.1    85     8.2   755.4    0.00 
 125    2:50   0.00   34.7    69    6.6    80     8.3   755.4    0.00 
 125    3:00   0.00   35.0    63    5.8   128     8.1   755.4    0.00 
 125    3:10   0.00   35.2    63    5.5   127     8.4   755.4    0.00 
 125    3:20   0.00   34.9    62    6.4   152     9.8   755.3    0.00 
 125    3:30   0.00   35.0    60    7.6   156     9.9   755.3    0.00 
 125    3:40   0.00   34.8    60    7.3   159     9.6   755.4    0.00 
 125    3:50   0.00   34.5    62    3.6   161     6.8   755.4    0.00 
 125    4:00   0.00   34.4    62    2.4   147     4.7   755.4    0.00 
 125    4:10   0.00   34.2    65    6.0   230    10.2   755.3    0.00 
 125    4:20   0.00   34.5    66    8.8   254    14.0   755.2    0.00 
 125    4:30   0.00   34.2    68    9.7   253    15.9   755.2    0.00 
 125    4:40   0.00   34.2    70   13.2   252    18.1   755.2    0.00 
 125    4:50   0.01   34.1    70   12.4   251    16.8   755.2    0.00 
 125    5:00   0.02   34.2    70   13.8   246    17.6   755.2    0.00 
 125    5:10   0.04   34.3    70   10.7   249    17.5   755.4    0.00 
 125    5:20   0.06   35.1    68    8.1   257    14.3   755.5    0.00 
 125    5:30   0.09   35.7    66    7.2   256    13.6   755.5    0.00 
 125    5:40   0.12   36.4    64   12.0   248    14.8   755.4    0.00 
 125    5:50   0.16   36.8    62   13.8   250    17.3   755.4    0.00 
 125    6:00   0.19   37.3    61   11.2   238    16.2   755.6    0.00 
 125    6:10   0.23   38.0    60   12.1   236    15.3   755.6    0.00 
 125    6:20   0.27   37.8    61   12.8   244    15.9   755.7    0.00 
 125    6:30   0.31   38.2    60   10.6   245    14.3   755.7    0.00 
 125    6:40   0.34   39.0    60   10.7   234    14.6   755.8    0.00 
 125    6:50   0.39   39.2    59   11.8   246    16.6   755.8    0.00 
 125    7:00   0.43   39.2    59   11.7   251    16.1   755.8    0.00 
 125    7:10   0.47   40.2    58    7.5   245    14.7   756.0    0.00 
 125    7:20   0.49   41.1    56    8.8   251    14.7   756.1    0.00 
 125    7:30   0.51   41.6    55    6.2   246    10.6   756.2    0.00 
 125    7:40   0.58   42.2    54    5.7   271    11.0   756.2    0.00 
 125    7:50   0.58   42.6    53    6.0   266    11.8   756.3    0.00 
 125    8:00   0.66   44.3    50    4.9   272    10.2   756.3    0.00 
 125    8:10   0.70   45.8    48    6.0   302    10.7   756.5    0.00 
 125    8:20   0.74   46.7    46    5.6   305    10.0   756.5    0.00 
 125    8:30   0.78   47.0    46    4.8   312    10.4   756.5    0.00 
 125    8:40   0.68   47.3    45    3.7   338     9.3   756.6    0.00 
 125    8:50   0.66   47.3    45    4.5   332    11.0   756.6    0.00 
 125    9:00   0.93   46.7    46    3.0   335     7.1   756.6    0.00 
 125    9:10   0.70   48.1    44    3.2   349     9.2   756.7    0.00 
 125    9:20   0.81   48.1    44    4.2   323    10.9   756.8    0.00 
 125    9:30   0.73   46.9    46    2.3     1     8.6   756.9    0.00 
 125    9:40   1.00   49.6    41    2.9     4     7.5   756.9    0.00 
 125    9:50   0.80   49.9    40    2.4    13     9.4   756.9    0.00 
 125   10:00   0.58   51.0    39    2.2    27     5.5   756.9    0.00 
 125   10:10   0.42   48.9    41    1.5    42     5.7   757.0    0.00 
 125   10:20   0.38   47.9    42    4.0     3     8.5   757.0    0.00 
 125   10:30   0.39   46.7    44    4.4     8     8.5   757.1    0.00 
 125   10:40   0.34   46.7    43    2.6   352     6.6   757.2    0.00 
 125   10:50   100.00   46.5    44    5.0   356    10.1   757.1    0.00 
 125   11:00   0.39   46.9    42    3.6   356     6.6   757.2    0.00 
 125   11:10   0.46   46.7    42    4.3   348    10.4   757.2    0.00 
 125   11:20   0.47   47.7    41    1.9   321     7.4   757.2    0.00 
 125   11:30   100.00   47.7    41    1.8   203     5.4   757.3    0.00 
 125   11:40   0.36   48.1    41    1.4   156     4.4   757.3    0.00 
 125   11:50   0.30   47.8    42    4.0   225     6.8   757.4    0.00 
 125   12:00   100.00   47.0    42    2.5   246    12.4   757.2    0.00 
 125   12:10   100.00   50.2    38    2.3   344     7.0   757.2    0.00 
 125   12:20   100.00   53.3    34    4.5   350    14.2   757.0    0.00 
 125   12:30   100.00   53.2    33    4.3   344    10.8   757.1    0.00 
 125   12:40   100.00   53.3    33    3.2    30     7.7   757.1    0.00 
 125   12:50   0.37   52.6    34    2.3   112     6.4   757.1    0.00 
 125   13:00   0.29   50.6    36    2.6    22     7.4   757.2    0.00 
 125   13:10   0.30   50.3    36    1.0    53     4.2   757.2    0.00 
 125   13:20   0.26   50.0    36    2.4   108     7.1   757.2    0.00 
 125   13:30   0.85   49.7    35    3.2   325     7.2   757.3    0.00 
 125   13:40   0.65   51.5    32    3.3    10     9.9   757.2    0.00 
 125   13:50   1.00   53.6    29    5.2     8     9.1   757.0    0.00 
 125   14:00   1.07   55.5    27    2.4    13     7.2   757.0    0.00 
 125   14:10   1.05   56.8    26    1.9    93     5.8   757.0    0.00 
 125   14:20   0.82   55.4    26    2.9    75     9.1   756.9    0.00 
 125   14:30   0.64   54.3    27    2.8    71     8.9   756.8    0.00 
 125   14:40   0.32   53.3    28    2.7   294     6.6   756.8    0.00 
 125   14:50   0.52   52.2    30    1.3   223     5.3   756.8    0.00 
 125   15:00   0.84   52.0    30    2.6   116     8.3   756.8    0.00 
 125   15:10   0.84   53.8    28    1.8   125     5.6   756.6    0.00 
 125   15:20   0.72   55.0    26    3.1   114     8.8   756.5    0.00 
 125   15:30   0.33   54.1    26    2.3    44     8.5   756.5    0.00 
 125   15:40   0.54   52.8    29    1.3   117     7.8   756.5    0.00 
 125   15:50   0.28   53.1    28    2.5    85     7.3   756.6    0.00 
 125   16:00   0.48   52.3    27    4.3   350    10.1   756.7    0.00 
 125   16:10   0.41   54.4    26    2.1    46     8.9   756.6    0.00 
 125   16:20   0.31   51.9    28    2.4   126     6.7   756.8    0.00 
 125   16:30   0.45   52.1    28    2.9    42    12.7   756.7    0.00 
 125   16:40   0.28   53.1    27    2.9    42    10.9   756.8    0.00 
 125   16:50   0.38   53.0    27    3.7    72    12.3   756.9    0.00 
 125   17:00   0.31   52.6    27    2.3    98     8.1   756.9    0.00 
 125   17:10   0.28   52.2    27    4.1    39    10.2   757.0    0.00 
 125   17:20   0.24   52.2    27    4.7    44    11.7   757.0    0.00 
 125   17:30   0.19   51.2    28    3.1    79     9.4   757.0    0.00 
 125   17:40   0.16   50.4    29    1.9    49    11.2   757.1    0.00 
 125   17:50   0.14   50.5    29    4.1    40    11.2   757.1    0.00 
 125   18:00   0.10   50.2    29    7.4    46    13.1   757.1    0.00 
 125   18:10   0.03   50.0    30    6.1    16    10.8   757.3    0.00 
 125   18:20   0.04   49.4    30    7.4   354    13.1   757.4    0.00 
 125   18:30   0.03   49.3    31    8.9   349    14.8   757.4    0.00 
 125   18:40   0.01   48.4    33    9.7   349    19.0   757.6    0.00 
 125   18:50   0.00   47.7    36   12.3   348    19.8   757.7    0.00 
 125   19:00   0.00   47.1    40    9.8   354    17.6   757.6    0.00 
 125   19:10   0.00   46.3    44    8.2    17    15.0   757.8    0.00 
 125   19:20   0.00   45.8    45    8.4    13    13.6   757.9    0.00 
 125   19:30   0.00   45.4    46   14.4   346    21.5   758.0    0.00 
 125   19:40   0.00   45.0    47   11.8   350    20.0   758.2    0.00 
 125   19:50   0.00   44.6    47   11.5   347    17.2   758.4    0.00 
 125   20:00   0.00   44.4    47   13.4     7    22.0   758.5    0.00 
 125   20:10   0.00   44.2    47   12.4    20    22.2   758.7    0.00 
 125   20:20   0.00   44.0    47   11.6   348    18.0   758.9    0.00 
 125   20:30   0.00   43.7    47    7.1    11    12.5   758.9    0.00 
 125   20:40   0.00   43.8    47   11.1    25    20.4   758.9    0.00 
 125   20:50   0.00   43.9    46   13.3    35    18.6   758.9    0.00 
 125   21:00   0.00   43.7    46   10.1    41    16.4   759.0    0.00 
 125   21:10   0.00   43.5    47    8.8    46    13.6   759.1    0.00 
 125   21:20   0.00   43.2    47    8.0    50    13.4   759.2    0.00 
 125   21:30   0.00   43.0    48    8.6    52    12.3   759.3    0.00 
 125   21:40   0.00   42.9    48    7.5    56    12.3   759.4    0.00 
 125   21:50   0.00   43.1    48    8.9   100    14.4   759.4    0.00 
 125   22:00   0.00   44.3    47   11.7    92    15.7   759.3    0.00 
 125   22:10   0.00   44.4    48   11.8   110    17.3   759.4    0.00 
 125   22:20   0.00   44.7    48   11.7    98    18.8   759.5    0.00 
 125   22:30   0.00   44.5    49    8.9    91    16.6   759.6    0.00 
 125   22:40   0.00   44.2    49    9.2    85    15.6   759.6    0.00 
 125   22:50   0.00   44.2    50   10.6    90    16.6   759.6    0.00 
 125   23:00   0.00   44.4    51   14.8   104    21.5   759.5    0.00 
 125   23:10   0.00   44.3    52   16.1   108    22.5   759.7    0.00 
 125   23:20   0.00   44.1    53   16.9   112    22.3   759.7    0.00 
 125   23:30   0.00   44.5    52   11.0    84    18.6   759.7    0.00 
 125   23:40   0.00   44.3    52   10.5   106    14.7   759.8    0.00 
 125   23:50   0.00   43.8    54    6.8    76    12.8   759.8    0.00 
 126    0:00   0.00   43.3    54    8.2    76    15.4   759.7    0.00 
 126    0:10   0.00   42.8    55    7.6    80    14.2   759.7    0.00 
 126    0:20   0.00   42.4    56    3.2    76    11.5   759.7    0.00 
 126    0:30   0.00   42.4    57    1.7    70     8.5   759.7    0.00 
 126    0:40   0.00   42.1    57    1.6    82     4.7   759.8    0.00 
 126    0:50   0.00   41.7    56    2.0    67     7.0   759.6    0.00 
 126    1:00   0.00   41.3    56    2.3    65     7.0   759.6    0.00 
 126    1:10   0.00   41.0    59    1.7    80     5.7   759.7    0.00 
 126    1:20   0.00   40.9    60    3.2    66     8.0   759.7    0.00 
 126    1:30   0.00   40.7    60    5.0    74     9.2   759.8    0.00 
 126    1:40   0.00   40.8    60    2.9    74     9.3   759.8    0.00 
 126    1:50   0.00   40.9    60    3.4    66     8.4   760.0    0.00 
 126    2:00   0.00   40.9    60    2.9    68     9.9   760.0    0.00 
 126    2:10   0.00   41.2    62    2.3    76     8.0   760.0    0.00 

Return to Tikaboo Peak graphs page.


Western Regional Climate Center,wrcc@dri.edu